createdAt,value
2022-10-04T00:02:17.629Z,9.57
2022-10-04T00:04:51.757Z,9.56
2022-10-04T00:07:24.088Z,9.53
2022-10-04T00:10:22.111Z,9.54
2022-10-04T00:12:59.019Z,9.52
2022-10-04T00:15:37.513Z,9.48
2022-10-04T00:18:23.076Z,9.50
2022-10-04T00:20:55.929Z,9.49
2022-10-04T00:23:26.380Z,9.49
2022-10-04T00:26:02.024Z,9.48
2022-10-04T00:28:36.747Z,9.41
2022-10-04T00:31:14.330Z,9.49
2022-10-04T00:33:44.095Z,9.48
2022-10-04T00:36:23.867Z,9.47
2022-10-04T00:39:09.021Z,9.45
2022-10-04T00:41:47.996Z,9.44
2022-10-04T00:44:34.884Z,9.36
2022-10-04T00:47:13.143Z,9.42
2022-10-04T00:49:45.261Z,9.30
2022-10-04T00:52:25.758Z,9.39
2022-10-04T00:55:08.584Z,9.36
2022-10-04T00:57:44.979Z,9.36
2022-10-04T01:00:15.179Z,9.32
2022-10-04T01:02:43.380Z,9.31
2022-10-04T01:05:17.892Z,9.27
2022-10-04T01:07:48.568Z,9.26
2022-10-04T01:10:25.491Z,9.23
2022-10-04T01:13:15.505Z,9.18
2022-10-04T01:15:57.017Z,9.15
2022-10-04T01:18:24.082Z,9.13
2022-10-04T01:21:16.977Z,9.09
2022-10-04T01:23:54.416Z,9.06
2022-10-04T01:26:30.503Z,9.02
2022-10-04T01:29:00.695Z,8.99
2022-10-04T01:31:29.496Z,8.89
2022-10-04T01:33:57.385Z,8.96
2022-10-04T01:36:24.468Z,8.93
2022-10-04T01:38:51.757Z,8.88
2022-10-04T01:41:22.604Z,8.84
2022-10-04T01:43:55.400Z,8.82
2022-10-04T01:46:35.204Z,8.78
2022-10-04T01:49:10.049Z,8.74
2022-10-04T01:51:44.273Z,8.70
2022-10-04T01:54:20.166Z,8.67
2022-10-04T01:56:59.362Z,8.62
2022-10-04T01:59:52.468Z,8.58
2022-10-04T02:02:46.407Z,8.50
2022-10-04T02:05:18.201Z,8.45
2022-10-04T02:07:46.604Z,8.44
2022-10-04T02:10:20.126Z,8.40
2022-10-04T02:12:49.520Z,8.26
2022-10-04T02:15:20.190Z,8.34
2022-10-04T02:17:48.788Z,8.31
2022-10-04T02:20:20.131Z,8.27
2022-10-04T02:22:51.788Z,8.25
2022-10-04T02:25:20.490Z,8.21
2022-10-04T02:27:47.697Z,8.18
2022-10-04T02:30:14.836Z,8.16
2022-10-04T02:33:00.375Z,8.13
2022-10-04T02:35:31.705Z,8.08
2022-10-04T02:38:02.812Z,8.06
2022-10-04T02:40:39.562Z,8.04
2022-10-04T02:43:16.632Z,7.98
2022-10-04T02:45:52.613Z,7.94
2022-10-04T02:48:30.088Z,7.88
2022-10-04T02:51:06.887Z,7.83
2022-10-04T02:53:41.400Z,7.86
2022-10-04T02:56:12.239Z,7.83
2022-10-04T02:58:41.025Z,7.73
2022-10-04T03:01:15.831Z,7.77
2022-10-04T03:03:46.496Z,7.61
2022-10-04T03:06:20.676Z,7.71
2022-10-04T03:08:59.170Z,7.68
2022-10-04T03:11:31.739Z,7.61
2022-10-04T03:14:01.115Z,7.59
2022-10-04T03:16:35.599Z,7.49
2022-10-04T03:19:03.793Z,7.54
2022-10-04T03:21:32.651Z,7.51
2022-10-04T03:24:01.145Z,7.45
2022-10-04T03:26:42.615Z,7.45
2022-10-04T03:29:12.282Z,7.43
2022-10-04T03:31:46.523Z,7.36
2022-10-04T03:34:16.809Z,7.38
2022-10-04T03:36:45.494Z,7.35
2022-10-04T03:39:27.510Z,7.32
2022-10-04T03:41:54.855Z,7.25
2022-10-04T03:44:23.308Z,7.25
2022-10-04T03:46:50.332Z,7.20
2022-10-04T03:49:29.992Z,7.17
2022-10-04T03:51:59.094Z,7.15
2022-10-04T03:54:28.089Z,7.13
2022-10-04T03:56:56.756Z,7.10
2022-10-04T03:59:26.411Z,7.08
2022-10-04T04:02:16.271Z,7.04
2022-10-04T04:05:14.287Z,7.01
2022-10-04T04:07:48.541Z,6.94
2022-10-04T04:10:23.495Z,6.91
2022-10-04T04:13:12.116Z,6.86
2022-10-04T04:15:43.477Z,6.68
2022-10-04T04:18:20.811Z,6.79
2022-10-04T04:20:50.144Z,6.76
2022-10-04T04:23:32.976Z,6.72
2022-10-04T04:26:35.307Z,6.69
2022-10-04T04:29:11.119Z,6.65
2022-10-04T04:32:05.840Z,6.63
2022-10-04T04:35:04.587Z,6.59
2022-10-04T04:37:51.609Z,6.57
2022-10-04T04:40:44.692Z,6.52
2022-10-04T04:43:38.164Z,6.50
2022-10-04T04:46:29.165Z,6.46
2022-10-04T04:49:23.223Z,6.42
2022-10-04T04:52:11.816Z,6.38
2022-10-04T04:54:58.984Z,6.34
2022-10-04T04:57:46.025Z,6.31
2022-10-04T05:00:41.777Z,6.28
2022-10-04T05:03:38.753Z,6.25
2022-10-04T05:06:42.024Z,6.26
2022-10-04T05:09:48.405Z,6.23
2022-10-04T05:12:41.997Z,6.21
2022-10-04T05:15:29.965Z,6.20
2022-10-04T05:18:17.068Z,6.21
2022-10-04T05:21:10.236Z,6.18
2022-10-04T05:23:57.669Z,6.22
2022-10-04T05:26:50.894Z,6.21
2022-10-04T05:29:41.556Z,6.15
2022-10-04T05:32:49.546Z,6.24
2022-10-04T05:35:42.585Z,6.24
2022-10-04T05:38:39.616Z,6.27
2022-10-04T05:41:41.926Z,6.12
2022-10-04T05:44:43.038Z,6.29
2022-10-04T05:47:33.858Z,6.31
2022-10-04T05:50:21.042Z,6.30
2022-10-04T05:53:11.580Z,6.33
2022-10-04T05:56:16.385Z,6.38
2022-10-04T05:59:24.477Z,6.40
2022-10-04T06:02:42.397Z,6.43
2022-10-04T06:05:37.392Z,6.29
2022-10-04T06:08:38.915Z,6.48
2022-10-04T06:11:34.243Z,6.50
2022-10-04T06:14:21.204Z,6.53
2022-10-04T06:17:23.228Z,6.53
2022-10-04T06:20:24.759Z,6.56
2022-10-04T06:23:19.005Z,6.56
2022-10-04T06:26:31.621Z,6.58
2022-10-04T06:29:23.521Z,6.58
2022-10-04T06:32:47.826Z,6.59
2022-10-04T06:35:59.480Z,6.60
2022-10-04T06:39:08.065Z,6.61
2022-10-04T06:42:13.398Z,6.63
2022-10-04T06:45:29.940Z,6.63
2022-10-04T06:48:37.920Z,6.66
2022-10-04T06:51:39.718Z,6.67
2022-10-04T06:54:52.215Z,6.70
2022-10-04T06:57:51.659Z,6.72
2022-10-04T07:00:53.683Z,6.76
2022-10-04T07:03:51.571Z,6.79
2022-10-04T07:06:48.469Z,6.81
2022-10-04T07:09:47.919Z,6.74
2022-10-04T07:12:36.474Z,6.86
2022-10-04T07:15:36.627Z,6.87
2022-10-04T07:18:33.142Z,6.90
2022-10-04T07:21:29.668Z,6.89
2022-10-04T07:24:23.968Z,6.95
2022-10-04T07:27:13.308Z,6.88
2022-10-04T07:30:03.306Z,6.93
2022-10-04T07:32:54.495Z,7.03
2022-10-04T07:36:18.645Z,7.07
2022-10-04T07:39:13.947Z,7.12
2022-10-04T07:42:09.336Z,7.15
2022-10-04T07:44:59.255Z,7.13
2022-10-04T07:47:47.050Z,7.20
2022-10-04T07:50:46.485Z,7.26
2022-10-04T07:53:41.120Z,7.32
2022-10-04T07:56:44.985Z,7.35
2022-10-04T07:59:53.251Z,7.42
2022-10-04T08:02:43.850Z,7.47
2022-10-04T08:05:46.121Z,7.52
2022-10-04T08:09:03.904Z,7.57
2022-10-04T08:12:03.032Z,7.65
2022-10-04T08:14:59.088Z,7.72
2022-10-04T08:18:21.379Z,7.78
2022-10-04T08:21:18.803Z,7.85
2022-10-04T08:24:17.935Z,7.90
2022-10-04T08:27:10.561Z,7.96
2022-10-04T08:30:03.704Z,8.02
2022-10-04T08:33:13.640Z,8.08
2022-10-04T08:36:08.977Z,8.15
2022-10-04T08:39:10.041Z,8.02
2022-10-04T08:42:15.487Z,8.28
2022-10-04T08:45:59.577Z,8.37
2022-10-04T08:49:17.142Z,8.43
2022-10-04T08:52:22.059Z,8.48
2022-10-04T08:55:32.084Z,8.54
2022-10-04T08:58:46.424Z,8.58
2022-10-04T09:02:05.021Z,8.64
2022-10-04T09:05:29.900Z,8.69
2022-10-04T09:08:34.740Z,8.70
2022-10-04T09:11:49.395Z,8.77
2022-10-04T09:14:58.020Z,8.83
2022-10-04T09:17:47.814Z,8.88
2022-10-04T09:20:47.292Z,8.95
2022-10-04T09:23:49.479Z,9.00
2022-10-04T09:26:44.720Z,9.03
2022-10-04T09:29:57.036Z,9.08
2022-10-04T09:32:51.125Z,9.12
2022-10-04T09:35:50.346Z,9.17
2022-10-04T09:39:25.088Z,9.21
2022-10-04T09:42:26.894Z,9.25
2022-10-04T09:45:25.920Z,9.27
2022-10-04T09:48:38.708Z,9.32
2022-10-04T09:52:17.082Z,9.37
2022-10-04T09:55:20.770Z,9.43
2022-10-04T09:58:26.057Z,9.44
2022-10-04T10:01:22.014Z,9.51
2022-10-04T10:04:27.007Z,9.54
2022-10-04T10:07:45.509Z,9.58
2022-10-04T10:10:42.278Z,9.61
2022-10-04T10:13:38.581Z,9.64
2022-10-04T10:16:46.700Z,9.68
2022-10-04T10:19:52.684Z,9.72
2022-10-04T10:22:51.668Z,9.77
2022-10-04T10:26:20.092Z,9.82
2022-10-04T10:29:36.072Z,9.87
2022-10-04T10:32:41.459Z,9.93
2022-10-04T10:35:48.159Z,9.99
2022-10-04T10:38:35.037Z,10.01
2022-10-04T10:41:43.256Z,10.03
2022-10-04T10:44:36.079Z,10.05
2022-10-04T10:47:25.839Z,10.08
2022-10-04T10:50:23.212Z,10.10
2022-10-04T10:53:46.770Z,10.13
2022-10-04T10:56:51.716Z,10.17
2022-10-04T11:00:07.729Z,10.21
2022-10-04T11:03:13.071Z,10.23
2022-10-04T11:06:25.655Z,10.27
2022-10-04T11:09:21.853Z,10.30
2022-10-04T11:12:35.968Z,10.33
2022-10-04T11:16:01.702Z,10.37
2022-10-04T11:19:38.707Z,10.42
2022-10-04T11:22:28.889Z,10.45
2022-10-04T11:25:27.656Z,10.49
2022-10-04T11:28:35.163Z,10.54
2022-10-04T11:31:33.523Z,10.59
2022-10-04T11:34:53.003Z,10.63
2022-10-04T11:38:01.561Z,10.68
2022-10-04T11:41:13.277Z,10.74
2022-10-04T11:44:18.047Z,10.79
2022-10-04T11:47:41.762Z,10.84
2022-10-04T11:50:46.741Z,10.90
2022-10-04T11:53:58.801Z,10.95
2022-10-04T11:57:23.200Z,10.96
2022-10-04T12:00:22.521Z,10.99
2022-10-04T12:03:27.790Z,11.03
2022-10-04T12:06:40.174Z,11.05
2022-10-04T12:09:36.667Z,11.09
2022-10-04T12:12:31.147Z,11.12
2022-10-04T12:15:57.191Z,11.13
2022-10-04T12:18:53.192Z,11.13
2022-10-04T12:22:03.271Z,11.14
2022-10-04T12:25:02.717Z,11.14
2022-10-04T12:28:20.988Z,11.12
2022-10-04T12:31:27.255Z,11.10
2022-10-04T12:34:23.257Z,11.10
2022-10-04T12:37:13.112Z,11.11
2022-10-04T12:40:11.666Z,11.13
2022-10-04T12:43:04.622Z,11.15
2022-10-04T12:46:14.544Z,11.14
2022-10-04T12:49:20.186Z,11.11
2022-10-04T12:52:07.034Z,11.08
2022-10-04T12:55:02.810Z,11.06
2022-10-04T12:58:01.915Z,11.05
2022-10-04T13:01:00.069Z,11.07
2022-10-04T13:04:21.340Z,11.08
2022-10-04T13:07:34.306Z,11.10
2022-10-04T13:10:29.934Z,11.11
2022-10-04T13:13:38.813Z,11.11
2022-10-04T13:19:52.552Z,11.14
2022-10-04T13:23:13.833Z,11.15
2022-10-04T13:26:07.349Z,11.20
2022-10-04T13:29:18.700Z,11.22
2022-10-04T13:32:05.941Z,11.29
2022-10-04T13:34:59.014Z,11.35
2022-10-04T13:37:52.983Z,11.41
2022-10-04T13:40:45.755Z,11.45
2022-10-04T13:44:17.300Z,11.50
2022-10-04T13:47:30.267Z,11.50
2022-10-04T13:50:35.101Z,11.60
2022-10-04T13:53:39.055Z,11.63
2022-10-04T13:56:41.081Z,11.62
2022-10-04T13:59:52.917Z,11.65
2022-10-04T14:03:12.172Z,11.69
2022-10-04T14:06:21.036Z,11.69
2022-10-04T14:09:33.607Z,11.60
2022-10-04T14:12:45.728Z,11.69
2022-10-04T14:16:13.151Z,11.71
2022-10-04T14:19:21.181Z,11.74
2022-10-04T14:22:24.896Z,11.77
2022-10-04T14:25:49.336Z,11.79
2022-10-04T14:29:07.267Z,11.79
2022-10-04T14:32:20.629Z,11.79
2022-10-04T14:35:14.981Z,11.78
2022-10-04T14:38:25.834Z,11.77
2022-10-04T14:41:44.397Z,11.75
2022-10-04T14:44:53.778Z,11.75
2022-10-04T14:48:01.759Z,11.74
2022-10-04T14:50:51.435Z,11.72
2022-10-04T14:53:56.359Z,11.72
2022-10-04T14:56:56.203Z,11.70
2022-10-04T15:00:04.849Z,11.68
2022-10-04T15:02:51.764Z,11.67
2022-10-04T15:06:01.365Z,11.64
2022-10-04T15:09:10.006Z,11.63
2022-10-04T15:12:32.701Z,11.61
2022-10-04T15:15:34.285Z,11.58
2022-10-04T15:18:30.272Z,11.57
2022-10-04T15:21:40.157Z,11.57
2022-10-04T15:24:36.203Z,11.56
2022-10-04T15:27:44.539Z,11.55
2022-10-04T15:30:55.010Z,11.53
2022-10-04T15:34:15.375Z,11.51
2022-10-04T15:37:33.082Z,11.48
2022-10-04T15:40:53.611Z,11.45
2022-10-04T15:43:46.794Z,11.43
2022-10-04T15:46:56.555Z,11.41
2022-10-04T15:50:15.127Z,11.40
2022-10-04T15:53:19.962Z,11.36
2022-10-04T15:56:47.943Z,11.37
2022-10-04T15:59:51.817Z,11.36
2022-10-04T16:02:43.011Z,11.35
2022-10-04T16:05:38.844Z,11.34
2022-10-04T16:08:34.739Z,11.33
2022-10-04T16:11:45.753Z,11.30
2022-10-04T16:14:57.595Z,11.29
2022-10-04T16:18:12.341Z,11.27
2022-10-04T16:21:10.735Z,11.25
2022-10-04T16:23:59.656Z,11.24
2022-10-04T16:26:47.050Z,11.24
2022-10-04T16:30:21.834Z,11.22
2022-10-04T16:33:18.989Z,11.18
2022-10-04T16:36:28.686Z,11.18
2022-10-04T16:39:19.391Z,11.10
2022-10-04T16:41:57.859Z,11.09
2022-10-04T16:44:55.042Z,11.14
2022-10-04T16:47:49.441Z,11.14
2022-10-04T16:51:08.068Z,11.11
2022-10-04T16:54:13.433Z,11.07
2022-10-04T16:57:18.261Z,11.04
2022-10-04T17:00:09.249Z,11.03
2022-10-04T17:03:02.075Z,11.02
2022-10-04T17:05:54.980Z,11.00
2022-10-04T17:08:45.466Z,10.98
2022-10-04T17:11:50.347Z,10.88
2022-10-04T17:15:04.142Z,10.89
2022-10-04T17:18:04.651Z,10.75
2022-10-04T17:21:00.933Z,10.87
2022-10-04T17:23:50.497Z,10.86
2022-10-04T17:27:08.605Z,10.83
2022-10-04T17:30:07.436Z,10.82
2022-10-04T17:33:00.850Z,10.80
2022-10-04T17:36:15.654Z,10.78
2022-10-04T17:39:28.115Z,10.76
2022-10-04T17:42:41.924Z,10.74
2022-10-04T17:46:01.771Z,10.70
2022-10-04T17:49:00.751Z,10.70
2022-10-04T17:52:09.712Z,10.67
2022-10-04T17:54:55.501Z,10.66
2022-10-04T17:58:03.121Z,10.64
2022-10-04T18:01:27.094Z,10.63
2022-10-04T18:04:27.231Z,10.61
2022-10-04T18:07:38.955Z,10.60
2022-10-04T18:10:38.735Z,10.57
2022-10-04T18:13:42.504Z,10.53
2022-10-04T18:16:40.209Z,10.53
2022-10-04T18:19:55.426Z,10.49
2022-10-04T18:22:48.716Z,10.48
2022-10-04T18:25:41.605Z,10.33
2022-10-04T18:28:28.879Z,10.42
2022-10-04T18:31:19.847Z,10.38
2022-10-04T18:34:10.504Z,10.37
2022-10-04T18:37:46.203Z,10.35
2022-10-04T18:40:42.617Z,10.31
2022-10-04T18:43:44.693Z,10.30
2022-10-04T18:46:37.656Z,10.28
2022-10-04T18:49:41.123Z,10.26
2022-10-04T18:52:30.956Z,10.26
2022-10-04T18:55:40.487Z,10.24
2022-10-04T18:58:32.267Z,10.23
2022-10-04T19:01:33.351Z,10.20
2022-10-04T19:04:27.503Z,10.22
2022-10-04T19:07:38.380Z,10.21
2022-10-04T19:10:39.494Z,10.20
2022-10-04T19:13:49.727Z,10.20
2022-10-04T19:16:36.643Z,10.20
2022-10-04T19:19:49.317Z,10.13
2022-10-04T19:22:45.257Z,10.19
2022-10-04T19:25:37.973Z,10.17
2022-10-04T19:28:42.180Z,10.16
2022-10-04T19:31:38.130Z,10.14
2022-10-04T19:34:40.480Z,10.13
2022-10-04T19:37:45.760Z,10.11
2022-10-04T19:40:58.512Z,10.09
2022-10-04T19:43:59.191Z,10.08
2022-10-04T19:47:04.722Z,10.08
2022-10-04T19:50:12.972Z,10.06
2022-10-04T19:53:09.100Z,10.05
2022-10-04T19:56:15.899Z,10.04
2022-10-04T19:59:07.336Z,10.03
2022-10-04T20:01:54.332Z,10.02
2022-10-04T20:04:56.365Z,10.00
2022-10-04T20:07:47.777Z,9.99
2022-10-04T20:10:41.324Z,9.98
2022-10-04T20:13:31.201Z,9.96
2022-10-04T20:16:18.370Z,9.95
2022-10-04T20:19:16.750Z,9.92
2022-10-04T20:22:04.084Z,9.93
2022-10-04T20:24:57.033Z,9.91
2022-10-04T20:27:43.796Z,9.90
2022-10-04T20:30:34.991Z,9.80
2022-10-04T20:33:25.350Z,9.90
2022-10-04T20:36:21.783Z,9.89
2022-10-04T20:39:12.972Z,9.89
2022-10-04T20:42:02.143Z,9.87
2022-10-04T20:45:13.215Z,9.85
2022-10-04T20:48:05.076Z,9.85
2022-10-04T20:50:56.701Z,9.83
2022-10-04T20:53:46.286Z,9.83
2022-10-04T20:56:45.426Z,9.82
2022-10-04T20:59:35.816Z,9.81
2022-10-04T21:02:24.259Z,9.78
2022-10-04T21:05:11.346Z,9.80
2022-10-04T21:07:58.140Z,9.80
2022-10-04T21:10:45.024Z,9.79
2022-10-04T21:14:08.189Z,9.77
2022-10-04T21:17:02.703Z,9.73
2022-10-04T21:19:53.010Z,9.73
2022-10-04T21:22:39.886Z,9.71
2022-10-04T21:25:49.024Z,9.69
2022-10-04T21:28:53.538Z,9.66
2022-10-04T21:31:40.658Z,9.66
2022-10-04T21:34:51.530Z,9.65
2022-10-04T21:37:34.982Z,9.64
2022-10-04T21:40:22.437Z,9.62
2022-10-04T21:43:09.339Z,9.60
2022-10-04T21:45:56.387Z,9.59
2022-10-04T21:48:43.704Z,9.60
2022-10-04T21:51:30.670Z,9.59
2022-10-04T21:54:17.585Z,9.59
2022-10-04T21:57:04.832Z,9.44
2022-10-04T21:59:51.716Z,9.58
2022-10-04T22:02:38.729Z,9.59
2022-10-04T22:05:26.016Z,9.59
2022-10-04T22:08:13.075Z,9.59
2022-10-04T22:11:00.014Z,9.52
2022-10-04T22:13:46.967Z,9.60
2022-10-04T22:16:34.072Z,9.59
2022-10-04T22:19:21.145Z,9.57
2022-10-04T22:22:08.017Z,9.60
2022-10-04T22:24:56.177Z,9.61
2022-10-04T22:27:43.184Z,9.63
2022-10-04T22:30:42.365Z,9.63
2022-10-04T22:33:47.285Z,9.65
2022-10-04T22:37:03.469Z,9.65
2022-10-04T22:39:52.680Z,9.65
2022-10-04T22:42:40.912Z,9.68
2022-10-04T22:45:39.459Z,9.68
2022-10-04T22:48:15.455Z,9.70
2022-10-04T22:50:43.156Z,9.71
2022-10-04T22:53:23.376Z,9.71
2022-10-04T22:55:51.949Z,9.73
2022-10-04T22:58:21.091Z,9.74
2022-10-04T23:00:49.411Z,9.76
2022-10-04T23:03:31.507Z,9.76
2022-10-04T23:06:03.081Z,9.77
2022-10-04T23:08:30.796Z,9.75
2022-10-04T23:10:59.376Z,9.80
2022-10-04T23:13:27.544Z,9.81
2022-10-04T23:15:59.108Z,9.81
2022-10-04T23:18:27.000Z,9.83
2022-10-04T23:21:01.152Z,9.83
2022-10-04T23:23:30.953Z,9.85
2022-10-04T23:25:57.897Z,9.85
2022-10-04T23:28:25.284Z,9.86
2022-10-04T23:31:06.316Z,9.85
2022-10-04T23:33:33.378Z,9.88
2022-10-04T23:36:00.502Z,9.87
2022-10-04T23:38:29.353Z,9.90
2022-10-04T23:40:56.432Z,9.91
2022-10-04T23:43:25.721Z,9.92
2022-10-04T23:45:54.834Z,9.91
2022-10-04T23:48:27.413Z,9.93
2022-10-04T23:50:56.192Z,9.93
2022-10-04T23:53:26.857Z,9.95
2022-10-04T23:56:01.595Z,9.95
2022-10-04T23:58:40.957Z,9.95
